Time;durP1;ratioP1;P1;durP2;ratioP2;P2;SDS_P1;SDS_P2;PMS_P1;PMS_P2;Temp;Humidity;BMP_temperature;BMP_pressure;BME280_temperature;BME280_humidity;BME280_pressure;Samples;Min_cycle;Max_cycle;Signal;HPM_P1;HPM_P2
2022/09/22 00:01:16;;;;;;;12.75;8.75;;;;;;;7.77;nan;102335.38;5054702;28;20393;-55
2022/09/22 00:03:42;;;;;;;;;;;;;;;8.22;nan;102408.94;5054814;28;20079;-55
2022/09/22 00:06:13;;;;;;;9.50;7.25;;;;;;;8.20;nan;102412.44;5054513;28;19913;-54
2022/09/22 00:08:41;;;;;;;15.32;8.00;;;;;;;7.75;nan;102327.53;5054589;28;20041;-55
2022/09/22 00:11:19;;;;;;;11.23;8.02;;;;;;;8.13;nan;102381.81;5053100;28;20528;-56
2022/09/22 00:13:49;;;;;;;9.82;7.78;;;;;;;8.10;nan;102384.41;5054185;28;20528;-53
2022/09/22 00:16:14;;;;;;;9.55;7.82;;;;;;;7.66;nan;102324.88;5054476;28;20025;-56
2022/09/22 00:18:40;;;;;;;9.27;7.82;;;;;;;7.93;nan;102368.66;5054405;28;20103;-58
2022/09/22 00:21:14;;;;;;;10.70;8.05;;;;;;;7.91;nan;102376.50;5053296;28;20037;-58
2022/09/22 00:23:40;;;;;;;10.35;7.35;;;;;;;7.61;nan;102326.63;5054053;28;20192;-55
2022/09/22 00:26:07;;;;;;;13.65;8.13;;;;;;;7.50;nan;102304.72;5069613;28;20036;-55
2022/09/22 00:28:33;;;;;;;11.23;7.32;;;;;;;7.80;nan;102364.22;5053093;28;20024;-56
2022/09/22 00:30:58;;;;;;;11.73;7.22;;;;;;;7.54;nan;102318.72;5053404;28;20520;-55
2022/09/22 00:33:23;;;;;;;10.75;7.20;;;;;;;7.66;nan;102348.47;5054199;28;20078;-56
2022/09/22 00:35:59;;;;;;;11.82;8.15;;;;;;;7.59;nan;102332.72;5069586;28;20107;-56
2022/09/22 00:38:25;;;;;;;8.95;6.93;;;;;;;7.82;nan;102378.25;5052833;28;20036;-57
2022/09/22 00:40:50;;;;;;;11.68;7.68;;;;;;;7.77;nan;102370.34;5052902;28;20029;-55
2022/09/22 00:43:19;;;;;;;16.55;7.72;;;;;;;7.47;nan;102314.34;5052800;28;20042;-55
2022/09/22 00:45:52;;;;;;;11.30;7.43;;;;;;;7.78;nan;102365.97;5052939;28;20033;-53
2022/09/22 00:48:20;;;;;;;9.98;7.40;;;;;;;7.79;nan;102365.13;5052493;28;20381;-57
2022/09/22 00:50:47;;;;;;;13.00;7.35;;;;;;;7.70;nan;102360.72;5069186;28;20388;-57
2022/09/22 00:53:14;;;;;;;10.98;7.55;;;;;;;7.62;nan;102340.56;5052087;28;20025;-55
2022/09/22 00:55:46;;;;;;;9.38;7.60;;;;;;;7.75;nan;102374.72;5069230;28;20036;-57
2022/09/22 00:58:15;;;;;;;9.15;7.63;;;;;;;7.70;nan;102355.47;5053612;28;20113;-51
2022/09/22 01:00:42;;;;;;;12.48;8.63;;;;;;;7.43;nan;102307.31;5035886;28;20040;-53
2022/09/22 01:03:11;;;;;;;11.88;7.20;;;;;;;7.69;nan;102361.59;5052314;28;20073;-57
2022/09/22 01:05:37;;;;;;;9.80;7.78;;;;;;;7.31;nan;102293.31;5068887;28;20086;-55
2022/09/22 01:08:02;;;;;;;11.27;7.65;;;;;;;7.67;nan;102360.72;5052190;28;20032;-51
2022/09/22 01:10:27;;;;;;;9.38;7.72;;;;;;;7.49;nan;102326.56;5053459;28;20037;-56
2022/09/22 01:13:11;;;;;;;12.40;7.53;;;;;;;7.03;nan;102246.94;5053276;28;20135;-54
2022/09/22 01:15:52;;;;;;;12.57;7.93;;;;;;;7.31;nan;102295.06;5053376;28;20029;-55
2022/09/22 01:18:29;;;;;;;20.65;8.80;;;;;;;7.64;nan;102346.72;5053157;28;20187;-56
2022/09/22 01:21:01;;;;;;;12.73;7.75;;;;;;;7.36;nan;102304.69;5053267;28;20136;-54
2022/09/22 01:23:29;;;;;;;9.60;6.78;;;;;;;7.59;nan;102354.53;5053132;28;20029;-57
2022/09/22 01:26:31;;;;;;;12.20;7.60;;;;;;;7.56;nan;102333.56;5052031;28;20033;-53
2022/09/22 01:29:05;;;;;;;12.75;8.15;;;;;;;7.54;nan;102339.66;5051948;28;20029;-55
2022/09/22 01:31:38;;;;;;;13.30;7.38;;;;;;;7.52;nan;102330.94;5052652;28;20041;-58
2022/09/22 01:34:14;;;;;;;11.20;7.32;;;;;;;7.50;nan;102324.81;5068238;28;20032;-57
2022/09/22 01:36:53;;;;;;;12.18;7.80;;;;;;;7.45;nan;102331.78;5051377;28;20037;-56
2022/09/22 01:39:43;;;;;;;12.90;7.78;;;;;;;7.30;nan;102302.03;5053005;28;20032;-56
2022/09/22 01:42:15;;;;;;;9.00;7.43;;;;;;;7.04;nan;102253.03;5051808;28;20409;-56
2022/09/22 01:44:51;;;;;;;9.60;7.53;;;;;;;7.34;nan;102318.63;5052714;28;20476;-55
2022/09/22 01:47:21;;;;;;;11.93;7.43;;;;;;;7.43;nan;102328.28;5051279;28;20123;-55
2022/09/22 01:49:50;;;;;;;10.35;7.32;;;;;;;7.44;nan;102332.66;5068272;28;20464;-57
2022/09/22 01:52:22;;;;;;;11.00;7.72;;;;;;;7.30;nan;102303.78;5051328;28;20393;-54
2022/09/22 01:54:53;;;;;;;10.48;7.20;;;;;;;7.05;nan;102260.91;5052432;28;20158;-55
2022/09/22 01:57:32;;;;;;;10.95;7.40;;;;;;;6.96;nan;102239.03;5067949;28;20028;-55
2022/09/22 02:00:02;;;;;;;10.60;7.63;;;;;;;6.92;nan;102243.38;5052355;28;20074;-55
2022/09/22 02:02:32;;;;;;;12.88;7.97;;;;;;;6.91;nan;102233.78;5067998;28;20039;-57
2022/09/22 02:05:02;;;;;;;8.93;7.50;;;;;;;7.27;nan;102294.16;5051184;28;20040;-57
2022/09/22 02:07:38;;;;;;;13.85;7.53;;;;;;;7.27;nan;102291.53;5051016;28;20033;-54
2022/09/22 02:10:07;;;;;;;11.60;7.13;;;;;;;7.28;nan;102308.13;5067636;28;20036;-57
2022/09/22 02:12:35;;;;;;;9.98;7.47;;;;;;;6.88;nan;102219.81;5034347;28;20619;-54
2022/09/22 02:15:00;;;;;;;11.68;7.30;;;;;;;7.24;nan;102291.53;5052298;28;20037;-55
2022/09/22 02:17:26;;;;;;;11.32;7.00;;;;;;;6.83;nan;102221.53;5052250;28;20029;-58
2022/09/22 02:19:51;;;;;;;9.32;6.93;;;;;;;7.19;nan;102295.88;5052198;28;20400;-55
2022/09/22 02:22:16;;;;;;;8.82;6.70;;;;;;;6.97;nan;102265.22;5067537;28;20392;-56
2022/09/22 02:24:45;;;;;;;9.98;6.78;;;;;;;6.86;nan;102238.09;5052136;28;20053;-56
2022/09/22 02:27:19;;;;;;;12.23;7.55;;;;;;;7.03;nan;102280.09;5050960;28;20029;-55
2022/09/22 02:29:49;;;;;;;10.20;7.45;;;;;;;6.75;nan;102219.75;5067104;28;20052;-53
2022/09/22 02:32:15;;;;;;;12.82;7.72;;;;;;;6.75;nan;102227.59;5052171;28;20063;-54
2022/09/22 02:34:44;;;;;;;9.35;6.68;;;;;;;6.71;nan;102225.81;5050967;28;20448;-54
2022/09/22 02:37:40;;;;;;;12.10;9.13;;;;;;;6.68;nan;102222.34;5050792;28;20498;-55
2022/09/22 02:40:14;;;;;;;11.48;8.13;;;;;;;7.06;nan;102301.94;5067508;28;20040;-54
2022/09/22 02:42:47;;;;;;;10.45;7.63;;;;;;;6.94;nan;102288.78;5052790;28;20063;-56
2022/09/22 02:45:33;;;;;;;12.98;7.60;;;;;;;7.03;nan;102299.31;5054822;28;20033;-56
2022/09/22 02:48:02;;;;;;;11.90;7.50;;;;;;;7.01;nan;102292.28;5054918;28;20037;-58
2022/09/22 02:50:28;;;;;;;10.95;7.68;;;;;;;6.77;nan;102252.00;5056316;28;20108;-54
2022/09/22 02:53:02;;;;;;;21.85;16.48;;;;;;;6.98;nan;102285.28;5055992;28;20033;-54
2022/09/22 02:55:27;;;;;;;18.30;12.88;;;;;;;6.65;nan;102235.41;5054742;28;20036;-56
2022/09/22 02:57:53;;;;;;;15.70;12.13;;;;;;;6.58;nan;102221.41;5055583;28;20468;-57
2022/09/22 03:00:18;;;;;;;16.73;11.50;;;;;;;6.90;nan;102273.91;5055809;28;20039;-54
2022/09/22 03:02:44;;;;;;;14.77;10.00;;;;;;;6.82;nan;102265.16;5054784;28;20040;-55
2022/09/22 03:05:09;;;;;;;11.95;9.75;;;;;;;6.90;nan;102279.16;5055858;28;20033;-55
2022/09/22 03:07:34;;;;;;;13.40;9.00;;;;;;;6.53;nan;102212.66;5055925;28;20041;-57
2022/09/22 03:09:59;;;;;;;12.68;8.38;;;;;;;6.50;nan;102211.75;5055615;28;20480;-58
2022/09/22 03:12:25;;;;;;;10.57;8.85;;;;;;;6.84;nan;102266.03;5055397;28;20473;-56
2022/09/22 03:14:50;;;;;;;13.02;8.48;;;;;;;6.85;nan;102277.38;5054600;28;20499;-53
2022/09/22 03:17:15;;;;;;;11.95;8.43;;;;;;;6.48;nan;102209.09;5055659;28;20036;-56
2022/09/22 03:19:41;;;;;;;9.77;7.70;;;;;;;6.32;nan;102188.97;5071099;28;20087;-56
2022/09/22 03:22:06;;;;;;;11.73;7.97;;;;;;;6.71;nan;102251.97;5055488;28;20603;-56
2022/09/22 03:24:32;;;;;;;12.38;7.85;;;;;;;6.48;nan;102210.88;5054359;28;20032;-60
2022/09/22 03:26:57;;;;;;;12.82;8.95;;;;;;;6.78;nan;102261.63;5055576;28;20041;-53
2022/09/22 03:29:22;;;;;;;11.32;7.78;;;;;;;6.68;nan;102246.72;5054222;28;20350;-56
2022/09/22 03:31:48;;;;;;;12.32;8.35;;;;;;;6.75;nan;102255.50;5055347;28;20119;-56
2022/09/22 03:34:13;;;;;;;9.60;7.85;;;;;;;6.74;nan;102259.00;5055458;28;20119;-57
2022/09/22 03:36:38;;;;;;;12.15;8.55;;;;;;;6.73;nan;102255.50;5055166;28;20047;-54
2022/09/22 03:39:04;;;;;;;9.90;7.50;;;;;;;6.36;nan;102182.03;5055086;28;20067;-53
2022/09/22 03:41:30;;;;;;;11.63;7.90;;;;;;;6.62;nan;102232.75;5055257;28;20029;-52
2022/09/22 03:43:55;;;;;;;11.38;8.35;;;;;;;6.33;nan;102184.63;5055057;28;20036;-52
2022/09/22 03:46:20;;;;;;;10.43;7.60;;;;;;;6.54;nan;102230.06;5054693;28;20048;-57
2022/09/22 03:48:46;;;;;;;11.15;8.13;;;;;;;6.68;nan;102261.56;5055189;28;20048;-57
2022/09/22 03:51:11;;;;;;;13.43;7.60;;;;;;;6.36;nan;102202.94;5054956;28;20071;-58
2022/09/22 03:53:36;;;;;;;8.90;8.00;;;;;;;6.65;nan;102256.31;5054553;28;20096;-57
2022/09/22 03:56:06;;;;;;;12.65;8.32;;;;;;;6.65;nan;102256.31;5053838;28;20393;-53
2022/09/22 03:58:31;;;;;;;12.45;8.02;;;;;;;6.29;nan;102188.94;5070472;28;20033;-55
2022/09/22 04:00:56;;;;;;;10.57;7.80;;;;;;;6.35;nan;102203.81;5054622;28;20025;-55
2022/09/22 04:03:23;;;;;;;12.15;7.93;;;;;;;6.26;nan;102183.69;5054930;28;20103;-54
2022/09/22 04:05:49;;;;;;;12.77;8.07;;;;;;;6.23;nan;102186.28;5054793;28;20120;-57
2022/09/22 04:08:14;;;;;;;11.52;8.25;;;;;;;6.60;nan;102250.16;5070063;28;20496;-55
2022/09/22 04:10:40;;;;;;;13.73;9.02;;;;;;;6.59;nan;102251.06;5054515;28;20061;-52
2022/09/22 04:13:05;;;;;;;11.45;8.40;;;;;;;5.98;nan;102142.56;5054552;28;20061;-55
2022/09/22 04:15:30;;;;;;;12.63;9.25;;;;;;;6.59;nan;102240.59;5054720;28;20029;-51
2022/09/22 04:17:56;;;;;;;12.43;9.10;;;;;;;6.60;nan;102243.19;5054634;28;20029;-54
2022/09/22 04:20:21;;;;;;;12.60;9.50;;;;;;;6.59;nan;102244.09;5054266;28;20087;-57
2022/09/22 04:22:47;;;;;;;11.23;8.63;;;;;;;6.29;nan;102183.72;5054481;28;20037;-56
2022/09/22 04:25:12;;;;;;;15.65;9.90;;;;;;;6.61;nan;102247.56;5054304;28;20040;-54
2022/09/22 04:27:37;;;;;;;11.50;9.63;;;;;;;6.62;nan;102248.47;5054224;28;20431;-54
2022/09/22 04:30:04;;;;;;;14.55;9.73;;;;;;;6.44;nan;102207.38;5053841;28;20033;-56
2022/09/22 04:32:30;;;;;;;12.20;9.88;;;;;;;6.25;nan;102181.94;5053022;28;20037;-58
2022/09/22 04:34:55;;;;;;;13.20;10.80;;;;;;;6.57;nan;102242.28;5054282;28;20048;-52
2022/09/22 04:37:21;;;;;;;15.77;9.77;;;;;;;6.20;nan;102187.16;5054020;28;20033;-54
2022/09/22 04:39:46;;;;;;;12.38;9.43;;;;;;;6.54;nan;102245.78;5053992;28;20029;-53
2022/09/22 04:42:11;;;;;;;15.15;9.82;;;;;;;6.15;nan;102175.78;5053883;28;20323;-56
2022/09/22 04:44:36;;;;;;;13.10;9.77;;;;;;;6.50;nan;102241.41;5053890;28;20063;-55
2022/09/22 04:47:03;;;;;;;13.77;10.02;;;;;;;6.48;nan;102250.97;5053984;28;20044;-57
2022/09/22 04:49:28;;;;;;;13.32;10.63;;;;;;;6.46;nan;102241.34;5052584;28;20550;-52
2022/09/22 04:51:53;;;;;;;14.05;10.38;;;;;;;6.34;nan;102229.06;5053775;28;20080;-55
2022/09/22 04:54:18;;;;;;;14.70;10.85;;;;;;;6.07;nan;102181.84;5053211;28;20166;-55
2022/09/22 04:56:44;;;;;;;14.93;10.57;;;;;;;6.41;nan;102237.84;5053934;28;20198;-54
2022/09/22 04:59:10;;;;;;;14.35;11.10;;;;;;;6.06;nan;102180.97;5053598;28;20040;-53
2022/09/22 05:01:36;;;;;;;16.52;10.77;;;;;;;6.09;nan;102193.16;5053832;28;20037;-57
2022/09/22 05:04:01;;;;;;;16.75;11.15;;;;;;;6.35;nan;102236.06;5053689;28;20044;-56
2022/09/22 05:06:26;;;;;;;17.55;12.25;;;;;;;6.04;nan;102189.66;5051850;28;20036;-53
2022/09/22 05:08:52;;;;;;;13.48;11.43;;;;;;;6.02;nan;102181.78;5053506;28;20115;-53
2022/09/22 05:11:23;;;;;;;18.45;11.43;;;;;;;6.25;nan;102225.53;5053186;28;20094;-54
2022/09/22 05:13:49;;;;;;;13.48;10.48;;;;;;;6.34;nan;102234.31;5068497;28;20411;-52
2022/09/22 05:16:15;;;;;;;18.98;12.60;;;;;;;6.01;nan;102174.78;5053277;28;20059;-52
2022/09/22 05:18:41;;;;;;;19.27;12.35;;;;;;;6.35;nan;102233.44;5053419;28;20087;-56
2022/09/22 05:21:06;;;;;;;14.23;11.65;;;;;;;6.01;nan;102172.19;5053211;28;20032;-53
2022/09/22 05:23:32;;;;;;;17.20;11.82;;;;;;;5.96;nan;102160.81;5052974;28;20087;-55
2022/09/22 05:25:57;;;;;;;16.83;12.15;;;;;;;6.06;nan;102185.31;5053178;28;20404;-56
2022/09/22 05:28:23;;;;;;;18.55;12.35;;;;;;;5.99;nan;102176.53;5052950;28;20037;-58
2022/09/22 05:30:49;;;;;;;16.58;13.05;;;;;;;6.36;nan;102235.22;5051577;28;20043;-56
2022/09/22 05:33:15;;;;;;;21.40;12.13;;;;;;;6.35;nan;102235.19;5053032;28;20463;-55
2022/09/22 05:35:40;;;;;;;22.20;13.88;;;;;;;6.07;nan;102184.44;5052773;28;20068;-53
2022/09/22 05:38:05;;;;;;;15.95;13.13;;;;;;;6.36;nan;102255.25;5052858;28;20044;-56
2022/09/22 05:40:31;;;;;;;19.15;12.52;;;;;;;6.03;nan;102183.53;5052826;28;20112;-53
2022/09/22 05:42:56;;;;;;;18.70;14.52;;;;;;;6.34;nan;102247.38;5052800;28;20037;-58
2022/09/22 05:45:22;;;;;;;21.25;14.43;;;;;;;6.10;nan;102194.94;5052879;28;20484;-55
2022/09/22 05:47:47;;;;;;;20.98;14.25;;;;;;;6.38;nan;102243.94;5052888;28;20554;-52
2022/09/22 05:50:14;;;;;;;20.80;14.27;;;;;;;6.38;nan;102251.78;5052460;28;20040;-57
2022/09/22 05:52:39;;;;;;;19.58;13.88;;;;;;;6.40;nan;102241.31;5052246;28;20033;-57
2022/09/22 05:55:06;;;;;;;20.95;14.43;;;;;;;6.11;nan;102189.69;5052666;28;20040;-57
2022/09/22 05:57:31;;;;;;;21.55;15.43;;;;;;;6.14;nan;102192.34;5052743;28;20029;-53
2022/09/22 05:59:57;;;;;;;21.50;15.90;;;;;;;6.49;nan;102244.88;5051771;28;20435;-57
2022/09/22 06:02:23;;;;;;;22.17;15.85;;;;;;;6.52;nan;102244.03;5052418;28;20025;-56
2022/09/22 06:04:50;;;;;;;25.23;15.65;;;;;;;6.49;nan;102238.75;5052839;28;20033;-52
2022/09/22 06:07:16;;;;;;;27.58;18.48;;;;;;;6.63;nan;102248.44;5052121;28;20388;-58
2022/09/22 06:09:41;;;;;;;24.38;18.10;;;;;;;6.66;nan;102245.84;5052012;28;20028;-58
2022/09/22 06:12:07;;;;;;;22.98;17.45;;;;;;;6.66;nan;102231.88;5051952;28;20387;-58
2022/09/22 06:14:33;;;;;;;25.02;19.40;;;;;;;6.43;nan;102191.66;5052589;28;20579;-58
2022/09/22 06:16:58;;;;;;;24.48;19.88;;;;;;;6.81;nan;102237.22;5051851;28;20029;-58
2022/09/22 06:19:25;;;;;;;29.92;20.80;;;;;;;6.86;nan;102229.41;5050311;28;20491;-58
2022/09/22 06:21:51;;;;;;;27.67;19.88;;;;;;;6.95;nan;102240.78;5052218;28;20441;-57
2022/09/22 06:24:16;;;;;;;26.27;21.25;;;;;;;6.62;nan;102156.88;5052077;28;20124;-57
2022/09/22 06:26:42;;;;;;;31.33;23.23;;;;;;;7.09;nan;102239.06;5052303;28;20163;-57
2022/09/22 06:29:09;;;;;;;30.90;23.20;;;;;;;6.82;nan;102170.06;5052263;28;20037;-57
2022/09/22 06:31:35;;;;;;;36.15;25.42;;;;;;;7.22;nan;102227.81;5052122;28;20037;-57
2022/09/22 06:34:00;;;;;;;35.22;27.35;;;;;;;6.81;nan;102137.75;5052203;28;20036;-53
2022/09/22 06:36:31;;;;;;;37.63;27.88;;;;;;;7.08;nan;102176.25;5052129;28;20037;-58
2022/09/22 06:38:57;;;;;;;39.42;27.98;;;;;;;7.41;nan;102225.25;5052375;28;20029;-57
2022/09/22 06:41:26;;;;;;;38.47;28.50;;;;;;;7.56;nan;102222.66;5052294;28;20178;-58
2022/09/22 06:43:54;;;;;;;33.83;27.52;;;;;;;7.33;nan;102176.31;5052005;28;20463;-58
2022/09/22 06:46:25;;;;;;;39.50;29.48;;;;;;;7.15;nan;102120.44;5051723;28;20029;-56
2022/09/22 06:48:56;;;;;;;40.22;30.25;;;;;;;7.89;nan;102235.78;5052004;28;20033;-56
2022/09/22 06:51:24;;;;;;;43.63;30.88;;;;;;;7.69;nan;102164.13;5050887;28;20045;-57
2022/09/22 06:53:50;;;;;;;44.70;34.28;;;;;;;7.87;nan;102170.28;5051846;28;20071;-56
2022/09/22 06:56:18;;;;;;;47.47;35.28;;;;;;;8.33;nan;102226.22;5050428;28;20060;-59
2022/09/22 06:58:44;;;;;;;51.28;38.25;;;;;;;8.27;nan;102180.69;5051599;28;20037;-57
2022/09/22 07:01:10;;;;;;;41.70;35.53;;;;;;;8.56;nan;102199.91;5050515;28;20124;-56
2022/09/22 07:03:41;;;;;;;48.22;37.33;;;;;;;8.45;nan;102162.34;5051608;28;20453;-58
2022/09/22 07:06:07;;;;;;;;;;;;;;;8.92;nan;102215.56;5052258;28;20476;-57
2022/09/22 07:08:33;;;;;;;42.90;35.30;;;;;;;9.09;nan;102207.59;5051325;28;19912;-57
2022/09/22 07:11:01;;;;;;;40.47;34.90;;;;;;;9.29;nan;102218.88;5042886;28;20049;-57
2022/09/22 07:13:31;;;;;;;42.95;34.30;;;;;;;9.52;nan;102214.38;5029572;28;20477;-57
2022/09/22 07:16:01;;;;;;;39.67;32.83;;;;;;;9.61;nan;102201.16;5031223;28;20041;-58
2022/09/22 07:18:28;;;;;;;37.93;31.20;;;;;;;9.91;nan;102210.59;5031421;28;20080;-57
2022/09/22 07:21:01;;;;;;;35.15;31.45;;;;;;;9.74;nan;102159.03;5044854;28;20029;-54
2022/09/22 07:23:27;;;;;;;33.42;29.80;;;;;;;10.00;nan;102175.47;5051060;28;20114;-58
2022/09/22 07:25:55;;;;;;;29.50;26.50;;;;;;;10.44;nan;102190.84;5049109;28;20060;-57
2022/09/22 07:28:22;;;;;;;27.77;24.90;;;;;;;10.65;nan;102207.28;5048954;28;20033;-60
2022/09/22 07:30:47;;;;;;;27.80;25.02;;;;;;;10.61;nan;102134.50;5054342;28;20078;-58
2022/09/22 07:33:13;;;;;;;25.08;22.55;;;;;;;11.19;nan;102196.97;5053543;28;20029;-58
2022/09/22 07:35:38;;;;;;;23.52;21.10;;;;;;;11.14;nan;102146.97;5054818;28;20425;-59
2022/09/22 07:38:04;;;;;;;23.00;20.67;;;;;;;11.47;nan;102160.56;5055023;28;20056;-57
2022/09/22 07:40:30;;;;;;;23.48;20.92;;;;;;;11.60;nan;102154.19;5054932;28;20044;-58
2022/09/22 07:42:55;;;;;;;23.17;20.77;;;;;;;11.79;nan;102148.59;5053470;28;20480;-57
2022/09/22 07:45:22;;;;;;;21.33;18.80;;;;;;;12.26;nan;102223.47;5053292;28;20063;-59
2022/09/22 07:50:31;;;;;;;21.65;19.55;;;;;;;12.68;nan;102230.63;5054763;28;20463;-57
2022/09/22 07:52:57;;;;;;;19.50;17.50;;;;;;;12.90;nan;102229.28;5054878;28;20041;-59
2022/09/22 07:55:23;;;;;;;20.15;17.33;;;;;;;13.14;nan;102235.00;5054319;28;20115;-57
2022/09/22 07:57:54;;;;;;;18.35;16.50;;;;;;;13.39;nan;102228.31;5054473;28;20128;-58
2022/09/22 08:00:20;;;;;;;17.98;14.90;;;;;;;13.79;nan;102233.56;5053318;28;20542;-61
2022/09/22 08:02:54;;;;;;;18.60;15.85;;;;;;;14.15;nan;102219.44;5054711;28;20415;-59
2022/09/22 08:05:20;;;;;;;17.75;15.88;;;;;;;14.55;nan;102198.97;5054444;28;20037;-59
2022/09/22 08:07:46;;;;;;;16.50;14.90;;;;;;;15.46;nan;102254.66;5053195;28;20032;-59
2022/09/22 08:10:12;;;;;;;15.90;14.30;;;;;;;16.03;nan;102237.84;5054486;28;20036;-59
2022/09/22 08:12:38;;;;;;;14.55;12.75;;;;;;;16.76;nan;102262.81;5054639;28;20053;-59
2022/09/22 08:15:04;;;;;;;15.82;13.20;;;;;;;17.12;nan;102200.28;5054395;28;20064;-59
2022/09/22 08:17:29;;;;;;;16.05;13.43;;;;;;;17.62;nan;102197.50;5054249;28;20110;-60
2022/09/22 08:19:55;;;;;;;14.50;13.07;;;;;;;18.41;nan;102265.22;5054327;28;20068;-60
2022/09/22 08:22:21;;;;;;;14.65;13.10;;;;;;;-142.64;100.00;58178.75;5054270;28;20040;-60
2022/09/22 08:24:46;;;;;;;13.43;12.07;;;;;;;-142.64;100.00;58178.75;5052826;28;20036;-60
2022/09/22 08:27:11;;;;;;;13.35;11.48;;;;;;;19.48;nan;102277.38;5054103;28;20107;-59
2022/09/22 08:29:37;;;;;;;13.80;12.38;;;;;;;19.84;nan;102278.31;5053382;28;20125;-58
2022/09/22 08:32:02;;;;;;;13.10;11.68;;;;;;;19.98;nan;102262.47;5054300;28;20064;-59
2022/09/22 08:34:27;;;;;;;13.32;11.48;;;;;;;20.08;nan;102252.19;5054315;28;20036;-60
2022/09/22 08:36:54;;;;;;;12.48;11.25;;;;;;;20.05;nan;102214.91;5054093;28;20033;-59
2022/09/22 08:39:19;;;;;;;12.05;10.18;;;;;;;20.21;nan;102272.00;5053956;28;20033;-59
2022/09/22 08:42:09;;;;;;;12.40;10.85;;;;;;;20.20;nan;102231.03;5051674;28;20538;-59
2022/09/22 08:44:40;;;;;;;12.13;10.35;;;;;;;20.69;nan;102282.91;5052525;28;20261;-60
2022/09/22 08:47:14;;;;;;;10.75;9.85;;;;;;;20.68;nan;102250.91;5053980;28;20125;-59
2022/09/22 08:52:45;;;;;;;12.50;9.10;;;;;;;21.26;nan;102279.00;5053699;28;20521;-59
2022/09/22 08:55:19;;;;;;;9.80;8.85;;;;;;;21.33;nan;102247.41;5052591;28;20446;-59
2022/09/22 08:58:20;;;;;;;16.83;9.52;;;;;;;21.12;nan;102213.75;5053704;28;20036;-59
2022/09/22 09:00:52;;;;;;;11.18;9.82;;;;;;;21.39;nan;102224.78;5053486;28;20047;-59
2022/09/22 09:03:36;;;;;;;10.32;8.32;;;;;;;22.03;nan;102279.19;5053586;28;20105;-59
2022/09/22 09:06:12;;;;;;;9.10;8.30;;;;;;;21.93;nan;102229.72;5049643;28;20430;-58
2022/09/22 09:08:50;;;;;;;10.15;8.30;;;;;;;22.30;nan;102288.28;5034163;28;20025;-60
2022/09/22 09:11:23;;;;;;;12.63;9.23;;;;;;;22.06;nan;102230.75;5047385;28;20037;-59
2022/09/22 09:13:55;;;;;;;10.75;9.65;;;;;;;22.60;nan;102288.31;5052657;28;20053;-59
2022/09/22 09:16:58;;;;;;;9.90;8.32;;;;;;;22.53;nan;102292.31;5048300;28;20451;-59
2022/09/22 09:19:44;;;;;;;10.52;8.80;;;;;;;22.50;nan;102276.41;5051497;28;20026;-60
2022/09/22 09:22:23;;;;;;;8.38;7.57;;;;;;;22.54;nan;102277.06;5044278;28;20060;-58
2022/09/22 09:24:53;;;;;;;8.23;7.43;;;;;;;22.43;nan;102280.41;5043919;28;20516;-60
2022/09/22 09:27:29;;;;;;;9.80;6.40;;;;;;;22.38;nan;102294.09;5047107;28;20053;-59
2022/09/22 09:29:59;;;;;;;8.07;7.03;;;;;;;22.34;nan;102279.13;5043384;28;20374;-61
2022/09/22 09:32:47;;;;;;;8.25;6.95;;;;;;;22.17;nan;102249.75;5037913;28;20388;-59
2022/09/22 09:35:22;;;;;;;9.80;7.32;;;;;;;22.19;nan;102276.47;5042304;28;20453;-59
2022/09/22 09:37:48;;;;;;;8.35;6.88;;;;;;;22.39;nan;102292.25;5032336;28;20025;-60
2022/09/22 09:40:17;;;;;;;7.47;6.20;;;;;;;22.84;nan;102302.09;5047556;28;20108;-59
2022/09/22 09:42:45;;;;;;;8.35;5.57;;;;;;;23.41;nan;102290.47;5036346;28;20079;-59
2022/09/22 09:45:13;;;;;;;12.75;6.88;;;;;;;24.18;nan;102310.59;5052722;28;20539;-59
2022/09/22 09:47:41;;;;;;;6.57;5.85;;;;;;;24.02;nan;102295.44;5052600;28;20021;-59
2022/09/22 09:50:09;;;;;;;6.90;5.18;;;;;;;23.91;nan;102299.78;5051116;28;20044;-59
2022/09/22 09:52:38;;;;;;;8.13;5.05;;;;;;;23.83;nan;102294.06;5043635;28;20428;-60
2022/09/22 09:55:32;;;;;;;6.85;5.10;;;;;;;22.97;nan;102295.88;5047060;28;20036;-61
2022/09/22 09:58:03;;;;;;;6.32;5.15;;;;;;;22.17;nan;102230.97;5044456;28;20041;-59
2022/09/22 10:00:31;;;;;;;;;;;;;;;22.52;nan;102287.91;5048762;28;20115;-59
2022/09/22 10:03:15;;;;;;;5.78;4.78;;;;;;;22.70;nan;102222.41;5031118;28;20430;-60
2022/09/22 10:05:40;;;;;;;5.30;4.80;;;;;;;23.18;nan;102282.09;5031473;28;20080;-59
2022/09/22 10:08:20;;;;;;;5.00;4.47;;;;;;;22.60;nan;102226.56;5031359;28;20037;-60
2022/09/22 10:10:46;;;;;;;5.82;4.90;;;;;;;21.91;nan;102214.66;5031127;28;20037;-59
2022/09/22 10:13:11;;;;;;;8.80;6.10;;;;;;;21.69;nan;102266.78;5032223;28;20401;-61
2022/09/22 10:15:39;;;;;;;7.95;6.10;;;;;;;21.08;nan;102260.38;5032239;28;20050;-59
2022/09/22 10:18:23;;;;;;;7.60;6.18;;;;;;;20.53;nan;102255.22;5031253;28;20034;-60
2022/09/22 10:21:06;;;;;;;6.38;4.45;;;;;;;20.17;nan;102251.72;5032174;28;20120;-60
2022/09/22 10:23:32;;;;;;;6.63;6.03;;;;;;;19.60;nan;102218.03;5032272;28;20025;-60
2022/09/22 10:26:16;;;;;;;7.13;6.47;;;;;;;19.71;nan;102245.09;5032238;28;20504;-60
2022/09/22 10:28:42;;;;;;;9.57;7.07;;;;;;;19.56;nan;102232.47;5032256;28;20033;-59
2022/09/22 10:31:19;;;;;;;8.82;7.57;;;;;;;19.52;nan;102186.38;5043782;28;20032;-60
2022/09/22 10:33:58;;;;;;;10.98;7.38;;;;;;;20.33;nan;102188.53;5051941;28;20029;-62
2022/09/22 10:36:25;;;;;;;7.45;6.38;;;;;;;20.99;nan;102251.00;5050670;28;20029;-60
2022/09/22 10:38:54;;;;;;;8.75;6.88;;;;;;;20.77;nan;102245.94;5050731;28;20040;-59
2022/09/22 10:41:32;;;;;;;8.15;7.15;;;;;;;20.28;nan;102184.38;5051959;28;20041;-60
2022/09/22 10:44:00;;;;;;;7.25;6.65;;;;;;;20.27;nan;102199.53;5050596;28;20041;-61
2022/09/22 10:46:40;;;;;;;6.55;5.88;;;;;;;20.33;nan;102175.16;5067274;28;20120;-59
2022/09/22 10:49:22;;;;;;;7.05;5.38;;;;;;;20.94;nan;102231.66;5052127;28;20040;-60
2022/09/22 10:52:12;;;;;;;6.80;6.20;;;;;;;21.12;nan;102179.81;5052075;28;20040;-60
2022/09/22 10:54:41;;;;;;;7.93;6.10;;;;;;;21.89;nan;102214.75;5050890;28;20037;-60
2022/09/22 10:57:33;;;;;;;7.07;6.10;;;;;;;22.62;nan;102227.34;5050346;28;20124;-60
2022/09/22 11:00:20;;;;;;;6.65;4.78;;;;;;;23.09;nan;102234.34;5031341;28;20123;-60
2022/09/22 11:02:57;;;;;;;6.80;4.97;;;;;;;23.37;nan;102228.94;5050947;28;20120;-60
2022/09/22 11:14:34;;;;;;;5.80;4.85;;;;;;;22.95;nan;102216.38;5048808;28;20083;-60
2022/09/22 11:17:05;;;;;;;6.45;5.20;;;;;;;23.00;nan;102219.63;5042025;28;20090;-61
2022/09/22 11:20:12;;;;;;;6.03;4.25;;;;;;;24.06;nan;102212.72;5055283;28;20043;-60
2022/09/22 11:23:06;;;;;;;6.05;4.30;;;;;;;25.43;nan;102220.13;5050748;28;20056;-60
2022/09/22 11:25:40;;;;;;;5.72;3.90;;;;;;;26.44;nan;102225.13;5069538;28;20071;-59
2022/09/22 11:28:20;;;;;;;5.07;3.17;;;;;;;26.95;nan;102210.28;5055024;28;20067;-61
2022/09/22 11:30:49;;;;;;;4.40;3.65;;;;;;;27.35;nan;102216.03;5038793;28;20068;-59
2022/09/22 11:33:53;;;;;;;8.50;3.92;;;;;;;27.38;nan;102178.78;5053857;28;20041;-60
2022/09/22 11:36:33;;;;;;;3.58;2.95;;;;;;;27.97;nan;102218.97;5034689;28;20038;-59
2022/09/22 11:39:06;;;;;;;4.47;2.60;;;;;;;28.11;nan;102197.06;5055012;28;20036;-60
2022/09/22 11:41:58;;;;;;;8.20;6.28;;;;;;;28.14;nan;102196.78;5043324;28;20045;-60
2022/09/22 11:44:44;;;;;;;3.60;1.95;;;;;;;27.77;nan;102136.78;5049793;28;20476;-59
2022/09/22 11:47:41;;;;;;;3.00;1.20;;;;;;;28.06;nan;102183.06;5041603;28;20127;-56
2022/09/22 11:50:25;;;;;;;5.03;1.90;;;;;;;28.39;nan;102177.47;5054191;28;20468;-57
2022/09/22 11:53:02;;;;;;;4.25;1.70;;;;;;;28.85;nan;102170.75;5040360;28;20376;-56
2022/09/22 11:55:50;;;;;;;4.63;2.17;;;;;;;29.18;nan;102181.31;5051994;28;20033;-55
2022/09/22 11:58:21;;;;;;;3.33;1.50;;;;;;;29.32;nan;102172.84;5064523;28;20037;-56
2022/09/22 12:00:49;;;;;;;;;;;;;;;29.25;nan;102173.50;5065593;28;20075;-56
2022/09/22 12:03:22;;;;;;;2.47;1.20;;;;;;;28.81;nan;102167.47;5041968;28;20260;-56
2022/09/22 12:05:53;;;;;;;2.45;1.73;;;;;;;28.51;nan;102115.09;5052150;28;20457;-54
2022/09/22 12:08:21;;;;;;;3.55;1.25;;;;;;;29.25;nan;102163.53;5050779;28;20033;-56